createdAt,value
2022-12-05T00:00:26.269Z,90.12
2022-12-05T00:05:30.150Z,89.63
2022-12-05T00:10:31.795Z,89.93
2022-12-05T00:15:41.180Z,89.13
2022-12-05T00:20:51.296Z,87.64
2022-12-05T00:25:52.865Z,87.79
2022-12-05T00:30:59.536Z,87.05
2022-12-05T00:36:06.496Z,87.92
2022-12-05T00:41:11.527Z,88.83
2022-12-05T00:46:16.937Z,87.74
2022-12-05T00:51:28.377Z,88.20
2022-12-05T00:56:31.041Z,88.16
2022-12-05T01:01:38.539Z,87.74
2022-12-05T01:06:41.099Z,87.86
2022-12-05T01:11:43.489Z,87.52
2022-12-05T01:16:47.485Z,86.59
2022-12-05T01:21:49.806Z,86.87
2022-12-05T01:26:52.302Z,86.43
2022-12-05T01:31:54.826Z,86.79
2022-12-05T01:36:56.562Z,86.42
2022-12-05T01:41:58.276Z,86.44
2022-12-05T01:46:59.913Z,87.65
2022-12-05T01:52:18.927Z,89.46
2022-12-05T01:57:20.658Z,89.58
2022-12-05T02:02:22.735Z,90.73
2022-12-05T02:07:24.776Z,90.49
2022-12-05T02:12:26.843Z,90.93
2022-12-05T02:17:54.114Z,90.34
2022-12-05T02:23:17.805Z,90.22
2022-12-05T02:28:44.482Z,90.46
2022-12-05T02:33:50.640Z,89.39
2022-12-05T02:39:12.658Z,88.65
2022-12-05T02:44:23.049Z,89.73
2022-12-05T02:49:30.482Z,89.67
2022-12-05T02:54:41.804Z,89.96
2022-12-05T02:59:43.444Z,90.16
2022-12-05T03:04:45.117Z,90.10
2022-12-05T03:09:59.394Z,90.03
2022-12-05T03:15:07.674Z,90.01
2022-12-05T03:20:15.315Z,90.39
2022-12-05T03:25:17.734Z,89.66
2022-12-05T03:30:22.666Z,88.40
2022-12-05T03:35:43.578Z,89.14
2022-12-05T03:40:54.581Z,87.86
2022-12-05T03:46:00.840Z,88.40
2022-12-05T03:51:06.518Z,88.04
2022-12-05T03:56:13.450Z,88.92
2022-12-05T04:01:18.425Z,88.90
2022-12-05T04:06:26.759Z,88.06
2022-12-05T04:11:33.209Z,89.00
2022-12-05T04:17:05.717Z,89.10
2022-12-05T04:22:07.486Z,89.19
2022-12-05T04:27:27.956Z,88.58
2022-12-05T04:32:32.584Z,89.39
2022-12-05T04:37:39.576Z,90.22
2022-12-05T04:42:43.170Z,92.22
2022-12-05T04:47:51.080Z,93.40
2022-12-05T04:52:57.032Z,93.61
2022-12-05T04:58:11.944Z,94.84
2022-12-05T05:03:24.872Z,95.34
2022-12-05T05:08:29.108Z,94.81
2022-12-05T05:13:30.685Z,95.29
2022-12-05T05:18:32.729Z,95.54
2022-12-05T05:23:34.586Z,96.11
2022-12-05T05:28:36.317Z,95.67
2022-12-05T05:33:38.654Z,96.53
2022-12-05T05:38:43.354Z,95.06
2022-12-05T05:43:45.899Z,96.04
2022-12-05T05:48:47.943Z,95.09
2022-12-05T05:53:49.802Z,95.14
2022-12-05T05:59:01.980Z,96.34
2022-12-05T06:04:03.799Z,95.75
2022-12-05T06:09:07.347Z,96.58
2022-12-05T06:14:09.620Z,96.95
2022-12-05T06:19:11.295Z,94.63
2022-12-05T06:24:12.983Z,95.00
2022-12-05T06:29:14.640Z,95.45
2022-12-05T06:34:16.440Z,95.52
2022-12-05T06:39:18.210Z,96.64
2022-12-05T06:44:21.704Z,97.37
2022-12-05T06:49:30.753Z,95.90
2022-12-05T06:54:34.499Z,97.07
2022-12-05T06:59:36.449Z,96.19
2022-12-05T07:04:38.075Z,94.27
2022-12-05T07:09:51.616Z,95.22
2022-12-05T07:14:53.306Z,95.40
2022-12-05T07:19:54.990Z,95.32
2022-12-05T07:24:56.725Z,96.05
2022-12-05T07:29:58.700Z,95.57
2022-12-05T07:35:00.605Z,95.34
2022-12-05T07:40:02.309Z,94.99
2022-12-05T07:45:04.515Z,94.66
2022-12-05T07:50:07.063Z,95.55
2022-12-05T07:55:09.121Z,94.29
2022-12-05T08:00:11.411Z,93.10
2022-12-05T08:05:15.979Z,93.83
2022-12-05T08:10:17.715Z,93.64
2022-12-05T08:15:19.310Z,92.98
2022-12-05T08:20:20.958Z,93.46
2022-12-05T08:25:22.617Z,92.87
2022-12-05T08:30:24.312Z,93.36
2022-12-05T08:35:26.286Z,92.88
2022-12-05T08:40:27.959Z,92.62
2022-12-05T08:45:29.618Z,93.07
2022-12-05T08:50:31.185Z,93.21
2022-12-05T08:55:34.940Z,93.23
2022-12-05T09:00:36.589Z,92.50
2022-12-05T09:05:38.812Z,93.14
2022-12-05T09:10:40.533Z,92.56
2022-12-05T09:15:42.289Z,93.50
2022-12-05T09:20:44.548Z,93.62
2022-12-05T09:25:58.109Z,94.47
2022-12-05T09:31:02.160Z,92.14
2022-12-05T09:36:33.323Z,91.68
2022-12-05T09:42:07.976Z,92.80
2022-12-05T09:47:36.473Z,92.86
2022-12-05T09:52:41.565Z,92.80
2022-12-05T09:57:51.750Z,94.93
2022-12-05T10:03:05.318Z,94.71
2022-12-05T10:08:26.482Z,94.66
2022-12-05T10:13:46.040Z,92.60
2022-12-05T10:18:53.702Z,94.46
2022-12-05T10:24:02.882Z,95.36
2022-12-05T10:29:14.928Z,96.14
2022-12-05T10:34:26.981Z,97.79
2022-12-05T10:39:28.695Z,98.95
2022-12-05T10:44:32.147Z,98.01
2022-12-05T10:49:34.513Z,99.45
2022-12-05T10:54:44.384Z,100.00
2022-12-05T10:59:47.645Z,100.00
2022-12-05T11:04:51.159Z,100.00
2022-12-05T11:09:54.534Z,100.00
2022-12-05T11:15:25.586Z,100.00
2022-12-05T11:20:27.341Z,100.00
2022-12-05T11:25:32.910Z,99.79
2022-12-05T11:30:34.720Z,100.00
2022-12-05T11:35:37.941Z,99.76
2022-12-05T11:41:04.387Z,98.58
2022-12-05T11:46:22.252Z,98.53
2022-12-05T11:52:04.100Z,98.58
2022-12-05T11:57:34.077Z,97.33
2022-12-05T12:03:03.024Z,97.36
2022-12-05T12:08:28.456Z,97.64
2022-12-05T12:13:36.035Z,98.49
2022-12-05T12:18:53.298Z,97.76
2022-12-05T12:24:19.094Z,98.82
2022-12-05T12:29:20.650Z,98.13
2022-12-05T12:34:46.226Z,97.98
2022-12-05T12:40:13.186Z,98.00
2022-12-05T12:45:46.084Z,97.04
2022-12-05T12:50:52.821Z,96.53
2022-12-05T12:56:06.605Z,95.63
2022-12-05T13:01:36.406Z,95.14
2022-12-05T13:06:49.575Z,95.23
2022-12-05T13:11:53.315Z,94.13
2022-12-05T13:16:58.187Z,94.46
2022-12-05T13:22:00.813Z,93.91
2022-12-05T13:27:06.939Z,93.01
2022-12-05T13:32:36.300Z,94.21
2022-12-05T13:38:05.275Z,94.47
2022-12-05T13:43:07.530Z,90.61
2022-12-05T13:48:26.450Z,92.52
2022-12-05T13:53:39.477Z,93.39
2022-12-05T13:58:43.915Z,93.94
2022-12-05T14:03:48.663Z,93.95
2022-12-05T14:08:52.686Z,93.82
2022-12-05T14:13:58.007Z,93.66
2022-12-05T14:19:33.893Z,93.29
2022-12-05T14:24:50.251Z,93.24
2022-12-05T14:30:16.183Z,93.52
2022-12-05T14:35:25.493Z,93.97
2022-12-05T14:40:40.727Z,93.57
2022-12-05T14:45:58.333Z,92.69
2022-12-05T14:51:02.913Z,92.46
2022-12-05T14:56:16.281Z,93.96
2022-12-05T15:01:28.748Z,93.32
2022-12-05T15:06:33.536Z,93.84
2022-12-05T15:11:37.972Z,94.11
2022-12-05T15:16:43.811Z,94.05
2022-12-05T15:21:56.783Z,94.04
2022-12-05T15:27:03.569Z,93.06
2022-12-05T15:32:11.330Z,93.26
2022-12-05T15:37:28.358Z,94.30
2022-12-05T15:42:35.767Z,95.39
2022-12-05T15:47:38.977Z,95.67
2022-12-05T15:52:53.927Z,95.84
2022-12-05T15:58:13.043Z,94.75
2022-12-05T16:03:38.794Z,95.85
2022-12-05T16:08:47.893Z,96.00
2022-12-05T16:13:58.418Z,96.26
2022-12-05T16:19:05.507Z,96.09
2022-12-05T16:24:30.276Z,95.36
2022-12-05T16:29:35.033Z,94.55
2022-12-05T16:34:36.803Z,93.00
2022-12-05T16:39:38.978Z,93.55
2022-12-05T16:44:46.387Z,94.63
2022-12-05T16:49:48.084Z,94.78
2022-12-05T16:54:52.212Z,95.28
2022-12-05T16:59:56.929Z,95.71
2022-12-05T17:05:03.135Z,95.72
2022-12-05T17:10:05.696Z,95.26
2022-12-05T17:15:15.255Z,95.54
2022-12-05T17:20:18.453Z,95.25
2022-12-05T17:25:33.768Z,93.63
2022-12-05T17:30:35.452Z,94.26
2022-12-05T17:35:37.846Z,94.27
2022-12-05T17:40:40.306Z,95.13
2022-12-05T17:45:43.271Z,95.43
2022-12-05T17:50:47.985Z,94.52
2022-12-05T17:55:49.735Z,94.52
2022-12-05T18:00:51.378Z,93.83
2022-12-05T18:05:53.019Z,94.35
2022-12-05T18:10:56.206Z,93.59
2022-12-05T18:15:58.252Z,93.51
2022-12-05T18:21:08.262Z,93.15
2022-12-05T18:26:10.640Z,93.64
2022-12-05T18:31:17.124Z,92.26
2022-12-05T18:36:21.070Z,92.13
2022-12-05T18:41:23.833Z,92.26
2022-12-05T18:46:25.540Z,92.03
2022-12-05T18:51:27.949Z,91.48
2022-12-05T18:56:34.723Z,91.75
2022-12-05T19:01:38.851Z,91.08
2022-12-05T19:06:43.285Z,91.20
2022-12-05T19:11:47.800Z,91.66
2022-12-05T19:16:58.008Z,91.60
2022-12-05T19:22:02.420Z,91.40
2022-12-05T19:27:04.235Z,91.11
2022-12-05T19:32:06.065Z,91.85
2022-12-05T19:37:07.833Z,92.10
2022-12-05T19:42:09.525Z,91.70
2022-12-05T19:47:11.272Z,91.23
2022-12-05T19:52:17.773Z,91.54
2022-12-05T19:57:19.846Z,92.98
2022-12-05T20:02:24.116Z,92.38
2022-12-05T20:07:25.859Z,92.31
2022-12-05T20:12:27.489Z,92.14
2022-12-05T20:17:29.133Z,91.93
2022-12-05T20:22:31.027Z,91.66
2022-12-05T20:27:34.111Z,91.65
2022-12-05T20:32:35.761Z,91.52
2022-12-05T20:37:37.647Z,91.40
2022-12-05T20:42:44.969Z,91.25
2022-12-05T20:47:48.278Z,91.33
2022-12-05T20:52:49.939Z,91.18
2022-12-05T20:57:53.699Z,91.11
2022-12-05T21:02:56.727Z,91.61
2022-12-05T21:07:58.472Z,91.94
2022-12-05T21:13:00.117Z,91.79
2022-12-05T21:18:02.093Z,91.99
2022-12-05T21:23:04.065Z,91.82
2022-12-05T21:28:05.746Z,91.77
2022-12-05T21:33:07.435Z,91.55
2022-12-05T21:38:09.085Z,91.21
2022-12-05T21:43:10.726Z,91.09
2022-12-05T21:48:12.374Z,90.76
2022-12-05T21:53:14.189Z,90.67
2022-12-05T21:58:15.909Z,90.94
2022-12-05T22:03:17.579Z,91.15
2022-12-05T22:08:19.324Z,91.31
2022-12-05T22:13:21.039Z,91.35
2022-12-05T22:18:22.973Z,90.95
2022-12-05T22:23:25.261Z,90.69
2022-12-05T22:28:28.254Z,90.64
2022-12-05T22:33:31.682Z,90.31
2022-12-05T22:38:39.095Z,89.93
2022-12-05T22:43:42.087Z,89.65
2022-12-05T22:48:44.479Z,89.36
2022-12-05T22:53:49.724Z,89.11
2022-12-05T22:58:59.826Z,89.25
2022-12-05T23:04:06.418Z,89.23
2022-12-05T23:09:10.104Z,89.95
2022-12-05T23:14:11.780Z,90.62
2022-12-05T23:19:13.410Z,90.93
2022-12-05T23:24:15.036Z,91.51
2022-12-05T23:29:16.649Z,91.11
2022-12-05T23:34:18.364Z,91.41
2022-12-05T23:39:20.169Z,91.33
2022-12-05T23:44:22.734Z,91.39
2022-12-05T23:49:24.368Z,91.32
2022-12-05T23:54:26.105Z,91.39
2022-12-05T23:59:27.765Z,91.60
